createdAt,value
2022-12-15T00:00:50.924Z,92.50
2022-12-15T00:01:50.832Z,92.72
2022-12-15T00:02:50.929Z,93.21
2022-12-15T00:03:50.885Z,93.35
2022-12-15T00:04:50.829Z,93.14
2022-12-15T00:05:50.823Z,92.50
2022-12-15T00:06:50.884Z,92.82
2022-12-15T00:07:50.791Z,92.50
2022-12-15T00:08:50.781Z,92.29
2022-12-15T00:09:50.776Z,92.50
2022-12-15T00:10:50.772Z,92.72
2022-12-15T00:11:50.764Z,92.57
2022-12-15T00:12:51.742Z,93.31
2022-12-15T00:13:50.747Z,93.52
2022-12-15T00:14:50.727Z,93.52
2022-12-15T00:15:52.331Z,93.85
2022-12-15T00:16:52.326Z,93.74
2022-12-15T00:17:50.876Z,93.91
2022-12-15T00:18:50.703Z,93.80
2022-12-15T00:19:50.728Z,93.59
2022-12-15T00:20:50.692Z,93.06
2022-12-15T00:21:50.690Z,93.06
2022-12-15T00:22:50.681Z,92.85
2022-12-15T00:23:50.660Z,93.27
2022-12-15T00:24:50.670Z,93.06
2022-12-15T00:25:50.663Z,92.63
2022-12-15T00:27:50.397Z,93.06
2022-12-15T00:28:50.380Z,92.32
2022-12-15T00:29:50.370Z,92.32
2022-12-15T00:30:51.105Z,91.56
2022-12-15T00:31:50.418Z,91.56
2022-12-15T00:32:50.327Z,90.50
2022-12-15T00:33:50.359Z,90.61
2022-12-15T00:34:50.317Z,90.19
2022-12-15T00:35:50.312Z,89.69
2022-12-15T00:36:51.403Z,90.01
2022-12-15T00:37:51.382Z,89.69
2022-12-15T00:38:51.367Z,90.33
2022-12-15T00:39:52.374Z,89.69
2022-12-15T00:40:51.359Z,90.01
2022-12-15T00:41:51.363Z,90.01
2022-12-15T00:42:51.360Z,90.44
2022-12-15T00:43:51.355Z,89.90
2022-12-15T00:44:51.333Z,90.12
2022-12-15T00:45:51.337Z,90.33
2022-12-15T00:46:51.440Z,89.73
2022-12-15T00:47:51.325Z,89.95
2022-12-15T00:48:51.331Z,90.01
2022-12-15T00:49:51.298Z,89.84
2022-12-15T00:50:51.288Z,89.52
2022-12-15T00:51:51.287Z,89.62
2022-12-15T00:52:51.279Z,89.62
2022-12-15T00:53:51.262Z,89.84
2022-12-15T00:54:51.263Z,89.67
2022-12-15T00:55:51.248Z,89.52
2022-12-15T00:56:51.280Z,89.62
2022-12-15T00:57:51.236Z,90.20
2022-12-15T00:58:51.228Z,90.26
2022-12-15T00:59:51.221Z,90.26
2022-12-15T01:00:51.208Z,89.88
2022-12-15T01:01:51.301Z,89.84
2022-12-15T01:02:51.532Z,90.20
2022-12-15T01:03:51.256Z,89.88
2022-12-15T01:04:51.178Z,89.84
2022-12-15T01:05:51.170Z,89.56
2022-12-15T01:06:51.167Z,89.88
2022-12-15T01:07:51.154Z,89.88
2022-12-15T01:08:51.151Z,90.09
2022-12-15T01:09:51.148Z,89.77
2022-12-15T01:10:51.132Z,89.77
2022-12-15T01:11:51.162Z,89.67
2022-12-15T01:12:51.120Z,89.77
2022-12-15T01:13:51.119Z,89.56
2022-12-15T01:14:51.130Z,89.62
2022-12-15T01:15:51.164Z,89.62
2022-12-15T01:16:51.086Z,90.20
2022-12-15T01:17:51.082Z,89.56
2022-12-15T01:18:51.082Z,89.13
2022-12-15T01:19:51.074Z,89.67
2022-12-15T01:20:51.067Z,89.56
2022-12-15T01:21:52.081Z,89.67
2022-12-15T01:22:51.070Z,89.77
2022-12-15T01:23:51.033Z,89.77
2022-12-15T01:24:51.045Z,89.67
2022-12-15T01:25:51.023Z,89.67
2022-12-15T01:26:51.015Z,89.56
2022-12-15T01:27:51.004Z,89.56
2022-12-15T01:28:51.004Z,89.45
2022-12-15T01:29:50.996Z,89.56
2022-12-15T01:30:50.981Z,89.70
2022-12-15T01:31:51.052Z,89.56
2022-12-15T01:32:50.963Z,89.77
2022-12-15T01:33:50.958Z,89.88
2022-12-15T01:34:50.964Z,89.67
2022-12-15T01:35:50.945Z,89.70
2022-12-15T01:36:50.935Z,89.88
2022-12-15T01:37:50.933Z,90.09
2022-12-15T01:38:54.324Z,89.67
2022-12-15T01:39:51.930Z,89.92
2022-12-15T01:40:50.916Z,90.31
2022-12-15T01:41:50.904Z,90.13
2022-12-15T01:42:50.892Z,90.67
2022-12-15T01:43:50.882Z,90.73
2022-12-15T01:44:50.880Z,90.62
2022-12-15T01:45:50.874Z,90.52
2022-12-15T01:46:50.913Z,90.73
2022-12-15T01:47:50.862Z,90.31
2022-12-15T01:48:50.856Z,90.73
2022-12-15T01:49:50.841Z,90.41
2022-12-15T01:50:50.843Z,90.52
2022-12-15T01:51:50.831Z,89.98
2022-12-15T01:52:50.826Z,89.88
2022-12-15T01:53:50.820Z,90.62
2022-12-15T01:54:50.849Z,90.31
2022-12-15T01:55:50.802Z,89.77
2022-12-15T01:56:50.801Z,89.98
2022-12-15T01:57:50.788Z,90.20
2022-12-15T01:58:50.774Z,90.09
2022-12-15T01:59:50.796Z,90.20
2022-12-15T02:00:50.782Z,90.20
2022-12-15T02:01:50.898Z,90.09
2022-12-15T02:02:50.830Z,89.98
2022-12-15T02:03:50.745Z,89.13
2022-12-15T02:04:50.732Z,89.56
2022-12-15T02:05:50.731Z,89.92
2022-12-15T02:06:50.719Z,89.60
2022-12-15T02:07:50.713Z,89.98
2022-12-15T02:08:50.696Z,90.20
2022-12-15T02:09:50.703Z,89.67
2022-12-15T02:10:50.690Z,89.77
2022-12-15T02:11:50.670Z,89.45
2022-12-15T02:12:50.667Z,89.70
2022-12-15T02:13:50.660Z,89.77
2022-12-15T02:14:50.654Z,89.67
2022-12-15T02:15:50.717Z,89.88
2022-12-15T02:16:50.642Z,90.09
2022-12-15T02:17:50.630Z,89.77
2022-12-15T02:18:50.623Z,89.92
2022-12-15T02:19:50.630Z,89.92
2022-12-15T02:20:50.615Z,89.60
2022-12-15T02:21:50.599Z,89.56
2022-12-15T02:22:50.602Z,89.81
2022-12-15T02:23:50.589Z,89.92
2022-12-15T02:24:50.581Z,89.70
2022-12-15T02:25:50.859Z,89.70
2022-12-15T02:26:50.568Z,89.60
2022-12-15T02:27:50.549Z,89.81
2022-12-15T02:28:50.559Z,90.13
2022-12-15T02:29:50.620Z,90.13
2022-12-15T02:30:50.537Z,90.28
2022-12-15T02:31:50.724Z,90.17
2022-12-15T02:32:50.511Z,90.24
2022-12-15T02:33:51.513Z,90.45
2022-12-15T02:34:50.519Z,90.56
2022-12-15T02:35:50.509Z,90.24
2022-12-15T02:36:50.493Z,90.39
2022-12-15T02:37:50.479Z,90.03
2022-12-15T02:38:50.470Z,90.34
2022-12-15T02:39:50.461Z,90.03
2022-12-15T02:40:50.489Z,90.34
2022-12-15T02:41:50.452Z,90.45
2022-12-15T02:42:50.435Z,90.13
2022-12-15T02:43:50.436Z,89.92
2022-12-15T02:44:50.434Z,90.45
2022-12-15T02:45:50.506Z,90.45
2022-12-15T02:46:50.418Z,90.24
2022-12-15T02:47:50.407Z,90.67
2022-12-15T02:48:50.395Z,91.20
2022-12-15T02:49:50.391Z,91.94
2022-12-15T02:50:50.380Z,91.52
2022-12-15T02:51:50.405Z,91.73
2022-12-15T02:52:50.383Z,91.58
2022-12-15T02:53:50.370Z,91.84
2022-12-15T02:54:50.359Z,91.63
2022-12-15T02:55:50.544Z,91.63
2022-12-15T02:56:50.346Z,91.73
2022-12-15T02:57:50.325Z,91.94
2022-12-15T02:58:50.321Z,91.84
2022-12-15T02:59:50.381Z,92.16
2022-12-15T03:00:50.361Z,91.73
2022-12-15T03:01:50.584Z,91.99
2022-12-15T03:02:50.478Z,91.35
2022-12-15T03:03:50.287Z,91.03
2022-12-15T03:04:50.283Z,91.94
2022-12-15T03:05:50.274Z,92.20
2022-12-15T03:06:50.277Z,92.58
2022-12-15T03:07:50.269Z,92.80
2022-12-15T03:08:50.244Z,92.48
2022-12-15T03:09:50.237Z,92.69
2022-12-15T03:10:50.229Z,93.23
2022-12-15T03:11:50.234Z,93.08
2022-12-15T03:12:50.224Z,92.76
2022-12-15T03:13:50.211Z,93.29
2022-12-15T03:14:50.212Z,93.35
2022-12-15T03:15:50.209Z,92.72
2022-12-15T03:16:50.277Z,92.18
2022-12-15T03:17:50.196Z,92.22
2022-12-15T03:18:50.186Z,91.86
2022-12-15T03:19:50.169Z,91.72
2022-12-15T03:20:50.169Z,91.82
2022-12-15T03:21:50.171Z,91.50
2022-12-15T03:22:50.157Z,91.50
2022-12-15T03:23:50.148Z,91.56
2022-12-15T03:24:50.141Z,91.36
2022-12-15T03:25:50.129Z,91.46
2022-12-15T03:26:50.266Z,91.46
2022-12-15T03:27:50.109Z,91.42
2022-12-15T03:28:50.606Z,91.00
2022-12-15T03:29:50.099Z,90.36
2022-12-15T03:30:50.590Z,89.83
2022-12-15T03:31:50.379Z,89.61
2022-12-15T03:32:50.074Z,88.34
2022-12-15T03:33:50.076Z,89.29
2022-12-15T03:34:50.060Z,89.15
2022-12-15T03:35:50.681Z,89.78
2022-12-15T03:36:50.047Z,89.78
2022-12-15T03:37:50.039Z,89.85
2022-12-15T03:38:50.041Z,88.89
2022-12-15T03:39:50.035Z,88.04
2022-12-15T03:40:50.096Z,88.15
2022-12-15T03:41:50.022Z,88.26
2022-12-15T03:42:50.043Z,88.00
2022-12-15T03:43:50.175Z,88.15
2022-12-15T03:44:49.993Z,87.30
2022-12-15T03:45:50.084Z,87.93
2022-12-15T03:46:49.970Z,87.93
2022-12-15T03:47:50.619Z,87.93
2022-12-15T03:48:49.953Z,88.43
2022-12-15T03:49:50.528Z,88.15
2022-12-15T03:50:49.937Z,88.68
2022-12-15T03:51:49.939Z,89.11
2022-12-15T03:52:49.920Z,89.42
2022-12-15T03:53:49.927Z,89.06
2022-12-15T03:54:49.908Z,88.85
2022-12-15T03:55:49.903Z,89.60
2022-12-15T03:56:49.934Z,89.39
2022-12-15T03:57:49.888Z,89.49
2022-12-15T03:58:49.885Z,89.56
2022-12-15T03:59:49.865Z,89.34
2022-12-15T04:00:49.857Z,89.45
2022-12-15T04:01:50.042Z,89.28
2022-12-15T04:02:50.181Z,89.34
2022-12-15T04:03:49.930Z,89.34
2022-12-15T04:04:49.824Z,89.45
2022-12-15T04:05:49.833Z,89.62
2022-12-15T04:06:49.808Z,89.73
2022-12-15T04:07:49.800Z,89.77
2022-12-15T04:08:49.868Z,88.13
2022-12-15T04:09:49.795Z,87.22
2022-12-15T04:10:49.782Z,87.39
2022-12-15T04:11:49.812Z,87.75
2022-12-15T04:12:49.767Z,87.71
2022-12-15T04:13:49.750Z,87.92
2022-12-15T04:14:49.750Z,87.71
2022-12-15T04:15:49.739Z,88.03
2022-12-15T04:16:49.796Z,87.29
2022-12-15T04:17:49.723Z,87.29
2022-12-15T04:18:49.719Z,88.03
2022-12-15T04:19:49.708Z,87.92
2022-12-15T04:20:50.344Z,88.98
2022-12-15T04:21:49.698Z,89.31
2022-12-15T04:22:49.701Z,88.52
2022-12-15T04:23:49.685Z,87.39
2022-12-15T04:24:50.536Z,86.93
2022-12-15T04:25:50.664Z,86.22
2022-12-15T04:26:49.666Z,85.59
2022-12-15T04:27:49.650Z,86.12
2022-12-15T04:28:49.644Z,86.01
2022-12-15T04:29:49.637Z,86.33
2022-12-15T04:30:49.661Z,87.39
2022-12-15T04:31:49.618Z,86.97
2022-12-15T04:32:50.293Z,87.07
2022-12-15T04:33:49.599Z,86.54
2022-12-15T04:34:49.620Z,85.80
2022-12-15T04:35:49.860Z,85.59
2022-12-15T04:36:49.574Z,85.84
2022-12-15T04:37:49.561Z,86.16
2022-12-15T04:38:50.564Z,86.26
2022-12-15T04:39:49.561Z,86.69
2022-12-15T04:40:49.539Z,86.05
2022-12-15T04:41:49.530Z,86.05
2022-12-15T04:42:49.524Z,86.09
2022-12-15T04:43:49.616Z,86.62
2022-12-15T04:44:50.223Z,86.41
2022-12-15T04:45:49.571Z,86.62
2022-12-15T04:46:49.500Z,86.62
2022-12-15T04:47:49.487Z,86.47
2022-12-15T04:48:49.476Z,86.37
2022-12-15T04:49:49.477Z,86.62
2022-12-15T04:50:49.844Z,87.12
2022-12-15T04:51:49.464Z,86.79
2022-12-15T04:52:49.454Z,87.22
2022-12-15T04:53:49.439Z,86.79
2022-12-15T04:54:49.436Z,86.69
2022-12-15T04:55:49.435Z,86.37
2022-12-15T04:56:50.032Z,86.16
2022-12-15T04:57:49.408Z,86.05
2022-12-15T04:58:49.391Z,85.84
2022-12-15T04:59:49.399Z,85.98
2022-12-15T05:00:50.034Z,86.16
2022-12-15T05:01:49.476Z,86.47
2022-12-15T05:02:49.887Z,86.19
2022-12-15T05:03:49.365Z,86.09
2022-12-15T05:04:49.472Z,85.73
2022-12-15T05:05:49.349Z,86.37
2022-12-15T05:06:49.341Z,86.47
2022-12-15T05:07:49.330Z,86.58
2022-12-15T05:08:50.267Z,86.37
2022-12-15T05:09:49.327Z,86.26
2022-12-15T05:10:50.041Z,86.37
2022-12-15T05:11:49.302Z,86.58
2022-12-15T05:12:49.294Z,86.37
2022-12-15T05:13:49.280Z,86.12
2022-12-15T05:14:49.407Z,85.80
2022-12-15T05:15:49.309Z,85.94
2022-12-15T05:16:49.327Z,86.62
2022-12-15T05:17:49.254Z,87.43
2022-12-15T05:18:49.242Z,88.18
2022-12-15T05:19:49.239Z,88.28
2022-12-15T05:20:50.128Z,87.75
2022-12-15T05:21:49.226Z,87.22
2022-12-15T05:22:49.212Z,88.07
2022-12-15T05:23:49.218Z,87.22
2022-12-15T05:24:49.194Z,88.28
2022-12-15T05:25:49.201Z,88.78
2022-12-15T05:26:52.684Z,87.71
2022-12-15T05:27:50.175Z,88.24
2022-12-15T05:28:49.178Z,88.56
2022-12-15T05:29:49.174Z,88.67
2022-12-15T05:30:49.202Z,88.78
2022-12-15T05:31:49.145Z,88.31
2022-12-15T05:32:49.910Z,89.20
2022-12-15T05:33:49.129Z,89.20
2022-12-15T05:34:49.118Z,88.88
2022-12-15T05:35:49.113Z,88.98
2022-12-15T05:36:49.104Z,89.62
2022-12-15T05:37:50.098Z,89.20
2022-12-15T05:38:49.105Z,87.67
2022-12-15T05:39:49.092Z,87.82
2022-12-15T05:40:50.038Z,88.13
2022-12-15T05:41:49.068Z,88.42
2022-12-15T05:42:50.266Z,88.84
2022-12-15T05:43:49.049Z,89.09
2022-12-15T05:44:49.046Z,89.51
2022-12-15T05:45:49.038Z,89.48
2022-12-15T05:46:49.045Z,89.58
2022-12-15T05:47:49.020Z,89.26
2022-12-15T05:48:49.004Z,89.58
2022-12-15T05:49:49.011Z,89.62
2022-12-15T05:50:49.020Z,90.05
2022-12-15T05:51:50.564Z,90.01
2022-12-15T05:52:49.633Z,90.43
2022-12-15T05:53:49.964Z,91.24
2022-12-15T05:54:48.961Z,91.24
2022-12-15T05:55:49.539Z,90.92
2022-12-15T05:56:49.980Z,90.39
2022-12-15T05:57:48.927Z,90.03
2022-12-15T05:58:48.928Z,89.50
2022-12-15T05:59:48.912Z,89.29
2022-12-15T06:00:48.911Z,89.18
2022-12-15T06:01:49.068Z,89.50
2022-12-15T06:02:50.025Z,88.87
2022-12-15T06:03:48.886Z,89.18
2022-12-15T06:04:48.966Z,89.61
2022-12-15T06:05:54.660Z,89.18
2022-12-15T06:06:50.864Z,88.80
2022-12-15T06:07:48.851Z,89.01
2022-12-15T06:08:50.182Z,89.22
2022-12-15T06:09:48.831Z,89.22
2022-12-15T06:10:48.838Z,89.54
2022-12-15T06:11:48.821Z,89.54
2022-12-15T06:12:48.864Z,89.43
2022-12-15T06:13:48.809Z,89.43
2022-12-15T06:14:49.807Z,89.65
2022-12-15T06:15:48.823Z,89.33
2022-12-15T06:16:50.810Z,89.22
2022-12-15T06:17:49.688Z,89.22
2022-12-15T06:18:50.253Z,89.43
2022-12-15T06:19:48.766Z,89.65
2022-12-15T06:20:49.723Z,89.58
2022-12-15T06:21:48.751Z,90.33
2022-12-15T06:22:50.076Z,91.39
2022-12-15T06:23:49.745Z,91.43
2022-12-15T06:24:48.740Z,91.43
2022-12-15T06:25:48.720Z,91.85
2022-12-15T06:26:49.504Z,91.92
2022-12-15T06:27:48.706Z,92.45
2022-12-15T06:28:48.701Z,92.87
2022-12-15T06:29:48.693Z,92.77
2022-12-15T06:30:48.687Z,93.30
2022-12-15T06:31:48.760Z,93.68
2022-12-15T06:32:49.880Z,93.26
2022-12-15T06:33:48.659Z,93.00
2022-12-15T06:34:48.652Z,93.21
2022-12-15T06:35:48.638Z,92.62
2022-12-15T06:36:48.630Z,93.00
2022-12-15T06:37:48.637Z,91.94
2022-12-15T06:38:50.029Z,92.05
2022-12-15T06:39:48.607Z,91.41
2022-12-15T06:40:48.604Z,91.03
2022-12-15T06:41:48.593Z,91.20
2022-12-15T06:42:48.591Z,91.30
2022-12-15T06:43:48.600Z,91.45
2022-12-15T06:44:48.586Z,91.66
2022-12-15T06:45:49.900Z,92.30
2022-12-15T06:46:48.572Z,91.77
2022-12-15T06:47:48.567Z,91.98
2022-12-15T06:48:48.534Z,92.05
2022-12-15T06:49:48.535Z,91.73
2022-12-15T06:50:50.148Z,91.83
2022-12-15T06:51:48.526Z,92.05
2022-12-15T06:52:48.506Z,92.26
2022-12-15T06:53:48.507Z,91.90
2022-12-15T06:54:49.487Z,92.11
2022-12-15T06:55:48.520Z,92.64
2022-12-15T06:56:49.860Z,92.75
2022-12-15T06:57:48.488Z,92.75
2022-12-15T06:58:48.464Z,92.29
2022-12-15T06:59:48.445Z,91.44
2022-12-15T07:00:48.439Z,91.58
2022-12-15T07:01:48.607Z,91.27
2022-12-15T07:02:50.330Z,91.41
2022-12-15T07:03:48.719Z,91.73
2022-12-15T07:04:48.411Z,92.43
2022-12-15T07:05:48.395Z,92.26
2022-12-15T07:06:48.421Z,92.26
2022-12-15T07:07:48.386Z,91.94
2022-12-15T07:08:48.379Z,92.19
2022-12-15T07:09:48.416Z,92.79
2022-12-15T07:10:48.362Z,93.43
2022-12-15T07:11:48.375Z,93.47
2022-12-15T07:12:48.353Z,93.11
2022-12-15T07:13:48.342Z,93.11
2022-12-15T07:14:53.217Z,92.68
2022-12-15T07:15:50.399Z,92.85
2022-12-15T07:16:48.361Z,93.00
2022-12-15T07:17:48.309Z,92.96
2022-12-15T07:18:48.314Z,91.69
2022-12-15T07:19:48.309Z,92.32
2022-12-15T07:20:49.954Z,92.22
2022-12-15T07:21:48.278Z,91.69
2022-12-15T07:22:48.274Z,91.79
2022-12-15T07:23:57.107Z,92.11
2022-12-15T07:24:50.262Z,92.00
2022-12-15T07:25:48.249Z,92.64
2022-12-15T07:26:49.069Z,92.54
2022-12-15T07:27:48.245Z,92.00
2022-12-15T07:28:48.246Z,91.90
2022-12-15T07:29:48.217Z,92.32
2022-12-15T07:30:48.211Z,91.79
2022-12-15T07:31:48.245Z,91.16
2022-12-15T07:32:50.196Z,91.16
2022-12-15T07:33:48.495Z,91.16
2022-12-15T07:34:48.178Z,91.16
2022-12-15T07:35:49.176Z,91.37
2022-12-15T07:36:52.052Z,91.69
2022-12-15T07:37:49.179Z,92.11
2022-12-15T07:38:50.572Z,91.58
2022-12-15T07:39:48.149Z,91.44
2022-12-15T07:40:48.149Z,91.27
2022-12-15T07:41:48.651Z,91.64
2022-12-15T07:42:48.126Z,91.22
2022-12-15T07:43:48.276Z,91.44
2022-12-15T07:44:50.008Z,91.54
2022-12-15T07:45:51.486Z,91.33
2022-12-15T07:46:49.153Z,91.33
2022-12-15T07:48:35.514Z,91.12
2022-12-15T07:49:35.541Z,91.18
2022-12-15T07:50:35.504Z,91.12
2022-12-15T07:51:35.500Z,91.01
2022-12-15T07:52:35.495Z,91.22
2022-12-15T07:53:35.812Z,91.44
2022-12-15T07:54:35.480Z,91.39
2022-12-15T07:56:04.889Z,91.44
2022-12-15T07:56:39.367Z,91.39
2022-12-15T07:57:35.474Z,90.97
2022-12-15T07:58:35.497Z,91.12
2022-12-15T07:59:35.439Z,90.97
2022-12-15T08:00:35.438Z,91.05
2022-12-15T08:01:35.528Z,92.22
2022-12-15T08:02:35.570Z,92.90
2022-12-15T08:03:36.221Z,93.85
2022-12-15T08:04:35.407Z,94.02
2022-12-15T08:05:35.393Z,94.02
2022-12-15T08:06:35.393Z,93.60
2022-12-15T08:07:35.375Z,93.60
2022-12-15T08:08:35.991Z,93.17
2022-12-15T08:09:35.363Z,93.13
2022-12-15T08:10:35.351Z,92.92
2022-12-15T08:11:35.366Z,92.60
2022-12-15T08:12:35.340Z,92.13
2022-12-15T08:14:04.360Z,91.71
2022-12-15T08:14:36.322Z,91.50
2022-12-15T08:15:35.317Z,91.50
2022-12-15T08:16:35.368Z,91.50
2022-12-15T08:17:35.310Z,91.29
2022-12-15T08:18:35.293Z,91.50
2022-12-15T08:19:35.291Z,91.96
2022-12-15T08:20:35.283Z,92.03
2022-12-15T08:21:35.288Z,91.61
2022-12-15T08:22:35.263Z,91.50
2022-12-15T08:23:35.257Z,90.97
2022-12-15T08:24:35.258Z,91.22
2022-12-15T08:25:35.242Z,91.44
2022-12-15T08:26:35.238Z,91.54
2022-12-15T08:27:35.249Z,91.22
2022-12-15T08:28:35.218Z,91.50
2022-12-15T08:29:51.779Z,91.29
2022-12-15T08:30:36.205Z,91.08
2022-12-15T08:31:35.234Z,91.12
2022-12-15T08:32:36.317Z,90.95
2022-12-15T08:33:36.299Z,91.69
2022-12-15T08:34:36.275Z,92.22
2022-12-15T08:35:55.786Z,92.75
2022-12-15T08:36:38.254Z,92.71
2022-12-15T08:37:36.247Z,92.85
2022-12-15T08:38:36.238Z,92.85
2022-12-15T08:39:36.225Z,92.58
2022-12-15T08:40:36.217Z,93.21
2022-12-15T08:41:36.220Z,92.75
2022-12-15T08:42:36.216Z,93.17
2022-12-15T08:43:36.216Z,92.75
2022-12-15T08:44:36.195Z,92.54
2022-12-15T08:45:36.277Z,91.69
2022-12-15T08:46:36.881Z,92.00
2022-12-15T08:47:36.169Z,92.64
2022-12-15T08:48:36.188Z,92.18
2022-12-15T08:49:36.154Z,91.79
2022-12-15T08:50:37.145Z,92.54
2022-12-15T08:51:36.140Z,92.11
2022-12-15T08:52:36.133Z,93.49
2022-12-15T08:53:36.141Z,93.80
2022-12-15T08:54:36.119Z,94.02
2022-12-15T08:55:36.114Z,93.77
2022-12-15T08:56:36.109Z,93.77
2022-12-15T08:57:36.094Z,93.87
2022-12-15T08:58:36.286Z,93.73
2022-12-15T08:59:36.086Z,93.30
2022-12-15T09:00:36.072Z,93.09
2022-12-15T09:01:36.299Z,92.88
2022-12-15T09:02:37.008Z,92.45
2022-12-15T09:03:36.372Z,92.03
2022-12-15T09:04:37.075Z,91.93
2022-12-15T09:05:36.033Z,91.67
2022-12-15T09:06:36.043Z,91.46
2022-12-15T09:07:36.017Z,91.35
2022-12-15T09:08:36.011Z,91.50
2022-12-15T09:09:36.002Z,91.61
2022-12-15T09:10:35.988Z,91.50
2022-12-15T09:11:35.983Z,91.18
2022-12-15T09:12:35.980Z,91.82
2022-12-15T09:13:36.307Z,91.50
2022-12-15T09:14:35.970Z,91.61
2022-12-15T09:16:07.800Z,91.50
2022-12-15T09:16:38.922Z,91.08
2022-12-15T09:17:35.973Z,89.91
2022-12-15T09:18:35.937Z,89.91
2022-12-15T09:19:35.926Z,89.91
2022-12-15T09:20:35.979Z,89.42
2022-12-15T09:21:35.922Z,89.38
2022-12-15T09:22:35.909Z,89.64
2022-12-15T09:23:36.597Z,89.64
2022-12-15T09:24:35.903Z,89.38
2022-12-15T09:25:35.937Z,89.28
2022-12-15T09:26:35.886Z,89.70
2022-12-15T09:27:35.893Z,90.12
2022-12-15T09:28:35.861Z,91.14
2022-12-15T09:29:35.848Z,90.50
2022-12-15T09:30:35.903Z,90.30
2022-12-15T09:31:35.874Z,89.62
2022-12-15T09:32:36.828Z,89.51
2022-12-15T09:33:36.051Z,89.40
2022-12-15T09:34:35.852Z,89.20
2022-12-15T09:35:35.807Z,89.40
2022-12-15T09:36:35.810Z,89.62
2022-12-15T09:37:35.844Z,89.47
2022-12-15T09:38:35.791Z,89.30
2022-12-15T09:39:35.807Z,89.15
2022-12-15T09:40:35.780Z,88.84
2022-12-15T09:41:35.785Z,89.15
2022-12-15T09:42:35.759Z,88.62
2022-12-15T09:43:38.972Z,88.62
2022-12-15T09:44:37.748Z,89.32
2022-12-15T09:45:35.742Z,89.15
2022-12-15T09:46:35.765Z,89.22
2022-12-15T09:47:35.778Z,88.48
2022-12-15T09:48:35.714Z,89.15
2022-12-15T09:49:35.702Z,88.94
2022-12-15T09:50:35.695Z,89.37
2022-12-15T09:51:35.681Z,88.88
2022-12-15T09:52:35.705Z,89.51
2022-12-15T09:54:01.841Z,89.15
2022-12-15T09:54:37.767Z,89.72
2022-12-15T09:55:35.709Z,89.66
2022-12-15T09:56:35.654Z,90.65
2022-12-15T09:57:35.652Z,90.93
2022-12-15T09:58:36.387Z,90.93
2022-12-15T09:59:35.779Z,91.18
2022-12-15T10:00:35.615Z,91.39
2022-12-15T10:01:35.693Z,91.71
2022-12-15T10:02:35.695Z,91.88
2022-12-15T10:03:36.148Z,91.78
2022-12-15T10:04:35.695Z,91.42
2022-12-15T10:06:06.155Z,91.06
2022-12-15T10:06:37.574Z,91.10
2022-12-15T10:07:35.574Z,90.32
2022-12-15T10:08:35.572Z,89.75
2022-12-15T10:09:36.557Z,89.64
2022-12-15T10:10:35.544Z,89.22
2022-12-15T10:11:35.536Z,89.18
2022-12-15T10:12:36.459Z,89.18
2022-12-15T10:13:35.529Z,88.34
2022-12-15T10:14:35.510Z,87.17
2022-12-15T10:15:35.631Z,87.42
2022-12-15T10:16:35.498Z,87.38
2022-12-15T10:17:35.486Z,87.92
2022-12-15T10:18:35.498Z,87.17
2022-12-15T10:19:35.482Z,86.96
2022-12-15T10:20:35.465Z,86.82
2022-12-15T10:21:35.534Z,87.13
2022-12-15T10:22:35.459Z,86.25
2022-12-15T10:23:36.101Z,87.30
2022-12-15T10:25:08.736Z,86.67
2022-12-15T10:25:37.433Z,86.29
2022-12-15T10:26:35.425Z,85.97
2022-12-15T10:27:35.410Z,85.86
2022-12-15T10:28:36.343Z,86.75
2022-12-15T10:29:35.463Z,87.03
2022-12-15T10:30:36.488Z,87.49
2022-12-15T10:31:35.415Z,87.03
2022-12-15T10:32:40.981Z,86.50
2022-12-15T10:33:37.375Z,86.25
2022-12-15T10:34:35.412Z,86.04
2022-12-15T10:35:35.366Z,85.72
2022-12-15T10:36:35.341Z,85.79
2022-12-15T10:37:35.334Z,84.88
2022-12-15T10:38:35.334Z,85.66
2022-12-15T10:39:35.318Z,86.18
2022-12-15T10:40:36.314Z,86.50
2022-12-15T10:41:35.305Z,86.92
2022-12-15T10:42:35.293Z,86.18
2022-12-15T10:43:36.170Z,86.82
2022-12-15T10:44:35.282Z,86.67
2022-12-15T10:45:35.280Z,86.25
2022-12-15T10:46:35.302Z,85.93
2022-12-15T10:47:35.256Z,85.26
2022-12-15T10:48:35.254Z,84.98
2022-12-15T10:49:35.248Z,84.94
2022-12-15T10:50:35.240Z,85.26
2022-12-15T10:51:35.249Z,84.59
2022-12-15T10:52:35.285Z,84.69
2022-12-15T10:53:35.474Z,84.80
2022-12-15T10:54:35.201Z,84.80
2022-12-15T10:55:35.205Z,84.52
2022-12-15T10:56:35.193Z,84.63
2022-12-15T10:57:35.198Z,84.84
2022-12-15T10:58:35.179Z,84.74
2022-12-15T10:59:35.235Z,84.94
2022-12-15T11:00:35.161Z,84.67
2022-12-15T11:01:35.413Z,85.41
2022-12-15T11:02:35.371Z,85.19
2022-12-15T11:03:35.953Z,85.26
2022-12-15T11:04:35.215Z,85.26
2022-12-15T11:05:35.116Z,84.80
2022-12-15T11:06:35.117Z,84.69
2022-12-15T11:07:35.110Z,83.75
2022-12-15T11:08:35.115Z,84.42
2022-12-15T11:09:35.961Z,84.77
2022-12-15T11:10:35.086Z,85.61
2022-12-15T11:11:35.108Z,85.36
2022-12-15T11:12:35.069Z,84.84
2022-12-15T11:13:35.369Z,85.05
2022-12-15T11:14:36.063Z,84.84
2022-12-15T11:15:35.099Z,84.74
2022-12-15T11:16:35.043Z,84.88
2022-12-15T11:17:35.029Z,85.16
2022-12-15T11:18:35.063Z,85.05
2022-12-15T11:19:35.487Z,84.69
2022-12-15T11:20:35.009Z,84.69
2022-12-15T11:21:35.000Z,83.85
2022-12-15T11:22:34.993Z,83.64
2022-12-15T11:23:35.706Z,83.11
2022-12-15T11:24:34.982Z,83.60
2022-12-15T11:25:34.981Z,84.02
2022-12-15T11:26:34.957Z,83.98
2022-12-15T11:27:35.032Z,83.98
2022-12-15T11:28:34.945Z,83.04
2022-12-15T11:29:34.933Z,82.72
2022-12-15T11:30:34.938Z,82.20
2022-12-15T11:31:34.923Z,82.26
2022-12-15T11:32:34.919Z,82.16
2022-12-15T11:33:35.594Z,81.42
2022-12-15T11:34:34.922Z,81.88
2022-12-15T11:35:34.887Z,82.09
2022-12-15T11:36:34.880Z,82.20
2022-12-15T11:37:36.779Z,81.52
2022-12-15T11:38:36.001Z,81.24
2022-12-15T11:39:34.894Z,81.14
2022-12-15T11:40:34.849Z,82.34
2022-12-15T11:41:34.839Z,82.55
2022-12-15T11:42:34.833Z,82.55
2022-12-15T11:43:35.465Z,83.18
2022-12-15T11:44:34.849Z,83.56
2022-12-15T11:45:34.819Z,83.46
2022-12-15T11:46:34.822Z,82.93
2022-12-15T11:47:34.798Z,82.82
2022-12-15T11:48:34.827Z,82.72
2022-12-15T11:49:40.783Z,83.04
2022-12-15T11:50:36.781Z,82.76
2022-12-15T11:51:34.779Z,83.11
2022-12-15T11:52:34.755Z,83.89
2022-12-15T11:53:35.484Z,85.09
2022-12-15T11:54:34.742Z,86.04
2022-12-15T11:55:41.060Z,86.04
2022-12-15T11:56:37.394Z,86.15
2022-12-15T11:57:34.722Z,86.88
2022-12-15T11:58:36.321Z,86.63
2022-12-15T11:59:34.711Z,85.68
2022-12-15T12:00:34.689Z,85.72
2022-12-15T12:01:34.706Z,86.00
2022-12-15T12:02:34.874Z,86.78
2022-12-15T12:03:34.679Z,87.09
2022-12-15T12:04:34.676Z,87.09
2022-12-15T12:05:34.778Z,87.41
2022-12-15T12:06:34.671Z,87.09
2022-12-15T12:07:41.527Z,86.99
2022-12-15T12:08:36.691Z,86.67
2022-12-15T12:09:35.636Z,86.67
2022-12-15T12:10:34.612Z,86.99
2022-12-15T12:11:36.452Z,86.78
2022-12-15T12:12:34.602Z,86.67
2022-12-15T12:13:34.653Z,87.52
2022-12-15T12:14:35.387Z,87.09
2022-12-15T12:15:34.575Z,86.99
2022-12-15T12:16:34.567Z,87.09
2022-12-15T12:17:34.581Z,86.99
2022-12-15T12:18:35.010Z,86.67
2022-12-15T12:19:34.626Z,87.62
2022-12-15T12:20:34.557Z,87.34
2022-12-15T12:21:34.562Z,87.20
2022-12-15T12:22:35.524Z,87.09
2022-12-15T12:23:34.516Z,87.52
2022-12-15T12:24:34.547Z,87.41
2022-12-15T12:25:34.543Z,86.99
2022-12-15T12:26:35.532Z,87.84
2022-12-15T12:27:34.490Z,87.30
2022-12-15T12:28:35.048Z,87.73
2022-12-15T12:29:34.492Z,87.62
2022-12-15T12:30:34.476Z,87.48
2022-12-15T12:31:34.470Z,86.67
2022-12-15T12:32:34.451Z,87.84
2022-12-15T12:33:35.000Z,88.15
2022-12-15T12:34:34.443Z,88.36
2022-12-15T12:35:34.433Z,88.36
2022-12-15T12:36:34.426Z,88.36
2022-12-15T12:37:34.411Z,88.89
2022-12-15T12:38:35.765Z,89.00
2022-12-15T12:39:34.397Z,88.75
2022-12-15T12:40:34.394Z,88.64
2022-12-15T12:41:35.996Z,88.75
2022-12-15T12:42:34.370Z,88.75
2022-12-15T12:43:35.160Z,89.02
2022-12-15T12:44:34.354Z,88.70
2022-12-15T12:45:34.374Z,88.60
2022-12-15T12:46:34.366Z,89.02
2022-12-15T12:47:34.363Z,88.92
2022-12-15T12:48:34.319Z,88.39
2022-12-15T12:49:34.370Z,88.39
2022-12-15T12:50:34.348Z,88.28
2022-12-15T12:51:34.338Z,88.18
2022-12-15T12:52:34.294Z,88.81
2022-12-15T12:54:09.924Z,89.02
2022-12-15T12:54:34.290Z,89.02